createdAt,value
2023-04-03T00:00:42.220Z,97.50
2023-04-03T00:03:09.388Z,97.90
2023-04-03T00:05:36.430Z,97.20
2023-04-03T00:08:03.328Z,97.80
2023-04-03T00:10:30.130Z,97.50
2023-04-03T00:12:57.244Z,97.30
2023-04-03T00:15:24.050Z,97.10
2023-04-03T00:17:50.941Z,97.40
2023-04-03T00:20:17.901Z,97.40
2023-04-03T00:22:44.751Z,97.20
2023-04-03T00:25:11.531Z,97.20
2023-04-03T00:27:41.404Z,97.30
2023-04-03T00:30:11.840Z,96.90
2023-04-03T00:32:38.613Z,97.10
2023-04-03T00:35:06.186Z,96.80
2023-04-03T00:37:33.260Z,97.00
2023-04-03T00:40:00.446Z,97.00
2023-04-03T00:42:27.309Z,96.80
2023-04-03T00:44:54.009Z,97.10
2023-04-03T00:47:20.772Z,96.40
2023-04-03T00:49:47.645Z,96.60
2023-04-03T00:52:18.841Z,96.30
2023-04-03T00:54:48.643Z,96.10
2023-04-03T00:57:16.989Z,96.10
2023-04-03T00:59:46.982Z,96.70
2023-04-03T01:02:13.769Z,96.20
2023-04-03T01:04:43.597Z,96.10
2023-04-03T01:07:11.871Z,95.90
2023-04-03T01:09:39.850Z,96.10
2023-04-03T01:12:20.712Z,95.90
2023-04-03T01:14:54.412Z,96.40
2023-04-03T01:17:30.631Z,95.90
2023-04-03T01:20:16.025Z,95.70
2023-04-03T01:22:58.400Z,95.30
2023-04-03T01:25:25.754Z,95.50
2023-04-03T01:27:52.535Z,95.20
2023-04-03T01:30:21.111Z,96.00
2023-04-03T01:32:47.929Z,94.70
2023-04-03T01:35:14.684Z,94.90
2023-04-03T01:37:41.560Z,95.20
2023-04-03T01:40:09.193Z,94.80
2023-04-03T01:42:35.997Z,94.90
2023-04-03T01:45:02.948Z,95.20
2023-04-03T01:47:29.724Z,95.60
2023-04-03T01:49:56.503Z,95.80
2023-04-03T01:52:23.241Z,94.70
2023-04-03T01:54:50.001Z,94.70
2023-04-03T01:57:17.163Z,95.00
2023-04-03T01:59:43.969Z,94.90
2023-04-03T02:02:11.080Z,94.30
2023-04-03T02:04:37.795Z,94.40
2023-04-03T02:07:04.724Z,94.30
2023-04-03T02:09:31.445Z,94.90
2023-04-03T02:11:58.156Z,94.80
2023-04-03T02:14:24.952Z,94.10
2023-04-03T02:16:51.915Z,94.10
2023-04-03T02:19:18.676Z,94.00
2023-04-03T02:21:45.626Z,94.10
2023-04-03T02:24:12.404Z,93.80
2023-04-03T02:26:39.187Z,93.60
2023-04-03T02:29:05.998Z,93.70
2023-04-03T02:31:32.837Z,93.50
2023-04-03T02:33:59.588Z,93.80
2023-04-03T02:36:26.380Z,94.00
2023-04-03T02:38:53.160Z,93.30
2023-04-03T02:41:19.893Z,93.70
2023-04-03T02:43:46.640Z,93.30
2023-04-03T02:46:16.094Z,93.80
2023-04-03T02:48:42.926Z,93.80
2023-04-03T02:51:09.666Z,93.70
2023-04-03T02:53:36.406Z,92.80
2023-04-03T02:56:03.230Z,93.20
2023-04-03T02:58:30.002Z,93.10
2023-04-03T03:00:56.788Z,93.10
2023-04-03T03:03:24.015Z,93.10
2023-04-03T03:05:50.840Z,93.50
2023-04-03T03:08:21.065Z,93.10
2023-04-03T03:10:47.807Z,92.70
2023-04-03T03:13:14.523Z,92.60
2023-04-03T03:15:41.289Z,92.50
2023-04-03T03:18:08.223Z,92.50
2023-04-03T03:20:35.183Z,92.10
2023-04-03T03:23:02.076Z,92.30
2023-04-03T03:25:28.812Z,99.90
2023-04-03T03:27:55.840Z,92.10
2023-04-03T03:30:22.849Z,92.80
2023-04-03T03:32:49.716Z,92.40
2023-04-03T03:35:16.649Z,92.20
2023-04-03T03:37:43.422Z,92.60
2023-04-03T03:40:12.172Z,92.10
2023-04-03T03:42:38.901Z,91.70
2023-04-03T03:45:06.594Z,91.70
2023-04-03T03:47:33.392Z,91.50
2023-04-03T03:50:00.342Z,91.60
2023-04-03T03:52:27.345Z,91.40
2023-04-03T03:54:54.121Z,99.90
2023-04-03T03:57:21.644Z,91.10
2023-04-03T03:59:49.651Z,91.40
2023-04-03T04:02:17.425Z,91.20
2023-04-03T04:04:44.280Z,91.10
2023-04-03T04:07:11.152Z,91.00
2023-04-03T04:09:37.876Z,99.90
2023-04-03T04:12:04.803Z,90.70
2023-04-03T04:14:31.568Z,99.90
2023-04-03T04:16:58.371Z,90.80
2023-04-03T04:19:25.265Z,90.50
2023-04-03T04:21:52.016Z,90.60
2023-04-03T04:24:18.790Z,90.60
2023-04-03T04:26:45.535Z,90.90
2023-04-03T04:29:12.368Z,90.40
2023-04-03T04:31:39.169Z,90.40
2023-04-03T04:34:05.999Z,90.30
2023-04-03T04:36:32.923Z,90.30
2023-04-03T04:38:59.985Z,90.40
2023-04-03T04:41:27.099Z,90.70
2023-04-03T04:43:53.942Z,90.00
2023-04-03T04:46:20.876Z,90.30
2023-04-03T04:48:47.719Z,90.10
2023-04-03T04:51:14.554Z,89.70
2023-04-03T04:53:41.476Z,89.00
2023-04-03T04:56:08.379Z,90.10
2023-04-03T04:58:35.486Z,89.30
2023-04-03T05:01:11.009Z,90.10
2023-04-03T05:03:38.068Z,90.10
2023-04-03T05:06:05.554Z,89.10
2023-04-03T05:08:32.590Z,89.20
2023-04-03T05:10:59.688Z,88.50
2023-04-03T05:13:26.523Z,88.70
2023-04-03T05:15:53.450Z,88.10
2023-04-03T05:18:20.166Z,89.10
2023-04-03T05:20:50.532Z,87.50
2023-04-03T05:23:17.940Z,89.00
2023-04-03T05:25:46.265Z,88.20
2023-04-03T05:28:13.016Z,87.00
2023-04-03T05:30:39.804Z,87.90
2023-04-03T05:33:07.110Z,86.90
2023-04-03T05:35:34.172Z,86.80
2023-04-03T05:38:01.145Z,86.80
2023-04-03T05:40:27.886Z,86.60
2023-04-03T05:42:54.801Z,86.70
2023-04-03T05:45:21.671Z,86.30
2023-04-03T05:47:48.530Z,72.20
2023-04-03T05:50:15.683Z,52.70
2023-04-03T05:52:46.423Z,30.20
2023-04-03T05:55:13.208Z,9.50
2023-04-03T05:57:39.960Z,1.00
2023-04-03T06:00:10.651Z,1.00
2023-04-03T06:02:37.531Z,1.00
2023-04-03T06:05:04.829Z,1.00
2023-04-03T06:07:32.216Z,1.00
2023-04-03T06:09:59.257Z,1.00
2023-04-03T06:12:25.987Z,1.00
2023-04-03T06:14:53.266Z,1.00
2023-04-03T06:17:20.198Z,1.00
2023-04-03T06:19:47.368Z,1.00
2023-04-03T06:22:14.947Z,1.00
2023-04-03T06:24:41.950Z,1.00
2023-04-03T06:27:08.704Z,1.00
2023-04-03T06:29:35.435Z,1.00
2023-04-03T06:32:02.149Z,1.00
2023-04-03T06:34:28.865Z,1.00
2023-04-03T06:36:55.618Z,1.00
2023-04-03T06:39:25.844Z,1.00
2023-04-03T06:41:52.921Z,1.00
2023-04-03T06:44:19.913Z,1.00
2023-04-03T06:46:47.653Z,1.00
2023-04-03T06:49:14.546Z,1.00
2023-04-03T06:51:41.341Z,1.00
2023-04-03T06:54:09.321Z,1.00
2023-04-03T06:56:37.235Z,1.00
2023-04-03T06:59:04.327Z,1.00
2023-04-03T07:01:31.426Z,1.00
2023-04-03T07:03:58.913Z,1.00
2023-04-03T07:06:28.153Z,1.00
2023-04-03T07:08:55.297Z,1.00
2023-04-03T07:11:22.263Z,1.00
2023-04-03T07:13:49.343Z,1.00
2023-04-03T07:16:16.278Z,1.00
2023-04-03T07:18:43.140Z,1.00
2023-04-03T07:21:09.900Z,1.00
2023-04-03T07:23:36.665Z,1.00
2023-04-03T07:26:03.781Z,1.00
2023-04-03T07:28:31.311Z,1.00
2023-04-03T07:31:09.150Z,1.00
2023-04-03T07:33:37.039Z,1.00
2023-04-03T07:36:04.218Z,1.00
2023-04-03T07:38:31.148Z,1.00
2023-04-03T07:40:57.927Z,1.00
2023-04-03T07:43:25.993Z,1.00
2023-04-03T07:45:53.217Z,1.00
2023-04-03T07:48:22.391Z,1.00
2023-04-03T07:50:49.367Z,1.00
2023-04-03T07:53:16.497Z,1.00
2023-04-03T07:55:45.988Z,1.00
2023-04-03T07:58:15.688Z,1.00
2023-04-03T08:00:42.733Z,1.00
2023-04-03T08:03:12.945Z,1.00
2023-04-03T08:05:42.469Z,1.00
2023-04-03T08:08:10.849Z,1.00
2023-04-03T08:10:37.958Z,1.00
2023-04-03T08:13:05.965Z,1.00
2023-04-03T08:15:32.907Z,1.00
2023-04-03T08:18:01.757Z,1.00
2023-04-03T08:20:29.274Z,1.00
2023-04-03T08:22:56.285Z,1.00
2023-04-03T08:25:23.187Z,1.00
2023-04-03T08:27:50.032Z,1.00
2023-04-03T08:30:16.966Z,1.00
2023-04-03T08:32:45.084Z,1.00
2023-04-03T08:35:12.115Z,1.00
2023-04-03T08:37:40.127Z,1.00
2023-04-03T08:40:09.581Z,1.00
2023-04-03T08:42:51.242Z,1.00
2023-04-03T08:45:23.363Z,1.00
2023-04-03T08:47:58.799Z,1.00
2023-04-03T08:50:40.387Z,1.00
2023-04-03T08:53:13.005Z,1.00
2023-04-03T08:55:45.004Z,1.00
2023-04-03T08:58:23.458Z,1.00
2023-04-03T09:00:58.865Z,1.00
2023-04-03T09:03:26.170Z,1.00
2023-04-03T09:06:11.902Z,1.00
2023-04-03T09:09:01.625Z,1.00
2023-04-03T09:11:46.552Z,1.00
2023-04-03T09:14:37.015Z,1.00
2023-04-03T09:17:32.945Z,1.00
2023-04-03T09:20:05.510Z,1.00
2023-04-03T09:22:41.783Z,1.00
2023-04-03T09:25:22.569Z,1.00
2023-04-03T09:27:49.955Z,1.00
2023-04-03T09:30:22.490Z,1.00
2023-04-03T09:32:52.090Z,1.00
2023-04-03T09:35:36.175Z,1.00
2023-04-03T09:38:11.293Z,1.00
2023-04-03T09:40:43.572Z,1.00
2023-04-03T09:43:27.279Z,1.00
2023-04-03T09:45:55.006Z,1.00
2023-04-03T09:48:24.890Z,1.00
2023-04-03T09:50:51.647Z,1.00
2023-04-03T09:53:28.136Z,1.00
2023-04-03T09:55:55.060Z,1.00
2023-04-03T09:58:42.789Z,1.00
2023-04-03T10:01:27.796Z,1.00
2023-04-03T10:04:14.194Z,1.00
2023-04-03T10:06:52.726Z,1.00
2023-04-03T10:09:23.935Z,1.00
2023-04-03T10:12:13.112Z,1.00
2023-04-03T10:14:54.468Z,1.00
2023-04-03T10:17:29.911Z,1.00
2023-04-03T10:20:03.367Z,1.00
2023-04-03T10:23:12.241Z,1.00
2023-04-03T10:25:50.182Z,1.00
2023-04-03T10:28:22.568Z,1.00
2023-04-03T10:30:49.352Z,1.00
2023-04-03T10:33:42.759Z,1.00
2023-04-03T10:36:23.767Z,1.00
2023-04-03T10:39:05.286Z,1.00
2023-04-03T10:42:00.672Z,1.00
2023-04-03T10:45:02.854Z,1.00
2023-04-03T10:48:03.438Z,1.00
2023-04-03T10:50:44.988Z,1.00
2023-04-03T10:53:38.876Z,1.00
2023-04-03T10:56:27.225Z,1.00
2023-04-03T10:59:09.471Z,1.00
2023-04-03T11:01:39.764Z,1.00
2023-04-03T11:04:08.837Z,1.00
2023-04-03T11:06:52.765Z,1.00
2023-04-03T11:09:27.915Z,1.00
2023-04-03T11:12:01.527Z,1.00
2023-04-03T11:14:37.474Z,1.00
2023-04-03T11:17:22.973Z,1.00
2023-04-03T11:20:06.129Z,1.00
2023-04-03T11:25:45.602Z,1.00
2023-04-03T11:28:15.936Z,1.00
2023-04-03T11:31:12.746Z,1.00
2023-04-03T11:34:04.017Z,1.00
2023-04-03T11:36:45.486Z,1.00
2023-04-03T11:39:33.714Z,1.00
2023-04-03T11:42:15.541Z,1.00
2023-04-03T11:44:42.585Z,1.00
2023-04-03T11:47:32.970Z,1.00
2023-04-03T11:50:05.255Z,1.00
2023-04-03T11:52:43.331Z,1.00
2023-04-03T11:55:22.748Z,1.00
2023-04-03T11:57:58.597Z,1.00
2023-04-03T12:01:03.821Z,1.00
2023-04-03T12:03:51.349Z,1.00
2023-04-03T12:06:18.169Z,1.00
2023-04-03T12:08:51.553Z,1.00
2023-04-03T12:11:31.693Z,1.00
2023-04-03T12:13:58.503Z,1.00
2023-04-03T12:16:39.836Z,1.00
2023-04-03T12:19:15.675Z,1.00
2023-04-03T12:21:47.889Z,1.00
2023-04-03T12:24:17.314Z,1.00
2023-04-03T12:27:02.749Z,1.00
2023-04-03T12:29:37.192Z,1.00
2023-04-03T12:32:05.027Z,1.00
2023-04-03T12:34:34.310Z,1.00
2023-04-03T12:37:09.404Z,1.00
2023-04-03T12:39:42.441Z,1.00
2023-04-03T12:42:40.039Z,1.00
2023-04-03T12:45:12.998Z,1.00
2023-04-03T12:47:44.188Z,1.00
2023-04-03T12:50:37.076Z,1.00
2023-04-03T12:53:08.208Z,1.00
2023-04-03T12:55:35.031Z,1.00
2023-04-03T12:58:21.881Z,1.00
2023-04-03T13:01:11.538Z,1.00
2023-04-03T13:03:45.392Z,1.00
2023-04-03T13:06:19.852Z,1.00
2023-04-03T13:08:58.915Z,1.00
2023-04-03T13:11:28.199Z,1.00
2023-04-03T13:14:04.468Z,1.00
2023-04-03T13:16:31.371Z,1.00
2023-04-03T13:18:58.783Z,1.00
2023-04-03T13:21:31.411Z,1.00
2023-04-03T13:24:13.818Z,1.00
2023-04-03T13:26:41.670Z,1.00
2023-04-03T13:29:39.980Z,1.00
2023-04-03T13:32:07.734Z,1.00
2023-04-03T13:34:45.854Z,1.00
2023-04-03T13:37:34.027Z,1.00
2023-04-03T13:40:20.993Z,1.00
2023-04-03T13:43:00.475Z,1.00
2023-04-03T13:45:30.008Z,1.00
2023-04-03T13:48:23.246Z,1.00
2023-04-03T13:50:57.142Z,1.00
2023-04-03T13:53:24.992Z,1.00
2023-04-03T13:56:05.455Z,1.00
2023-04-03T13:58:33.900Z,1.00
2023-04-03T14:01:02.995Z,1.00
2023-04-03T14:03:41.147Z,1.00
2023-04-03T14:06:12.191Z,1.00
2023-04-03T14:08:43.455Z,1.00
2023-04-03T14:11:31.870Z,1.00
2023-04-03T14:14:21.324Z,1.00
2023-04-03T14:16:54.568Z,1.00
2023-04-03T14:19:25.356Z,1.00
2023-04-03T14:21:53.599Z,1.00
2023-04-03T14:24:21.401Z,1.00
2023-04-03T14:26:49.338Z,1.00
2023-04-03T14:29:17.259Z,1.00
2023-04-03T14:31:45.559Z,1.00
2023-04-03T14:34:14.341Z,1.00
2023-04-03T14:36:42.799Z,1.00
2023-04-03T14:39:16.989Z,1.00
2023-04-03T14:41:45.413Z,1.00
2023-04-03T14:44:12.222Z,1.00
2023-04-03T14:46:55.186Z,1.00
2023-04-03T14:49:29.935Z,1.00
2023-04-03T14:51:58.380Z,1.00
2023-04-03T14:54:28.545Z,1.00
2023-04-03T14:56:59.518Z,1.00
2023-04-03T14:59:27.516Z,1.00
2023-04-03T15:01:54.388Z,1.00
2023-04-03T15:04:22.330Z,1.00
2023-04-03T15:06:50.389Z,1.00
2023-04-03T15:09:23.459Z,1.00
2023-04-03T15:11:51.771Z,1.00
2023-04-03T15:14:29.724Z,1.00
2023-04-03T15:17:06.098Z,1.00
2023-04-03T15:19:39.191Z,1.00
2023-04-03T15:22:05.980Z,1.00
2023-04-03T15:24:32.779Z,1.00
2023-04-03T15:27:01.016Z,1.00
2023-04-03T15:29:28.265Z,1.00
2023-04-03T15:31:55.243Z,1.00
2023-04-03T15:34:22.994Z,1.00
2023-04-03T15:36:53.456Z,1.00
2023-04-03T15:39:21.565Z,1.00
2023-04-03T15:41:48.545Z,1.00
2023-04-03T15:44:18.543Z,1.00
2023-04-03T15:46:47.074Z,1.00
2023-04-03T15:49:14.282Z,1.00
2023-04-03T15:51:41.456Z,1.00
2023-04-03T15:54:08.477Z,1.00
2023-04-03T15:56:35.427Z,1.00
2023-04-03T15:59:02.329Z,1.00
2023-04-03T16:01:29.265Z,1.00
2023-04-03T16:03:56.218Z,1.00
2023-04-03T16:06:25.155Z,1.00
2023-04-03T16:08:52.387Z,1.00
2023-04-03T16:11:19.112Z,1.00
2023-04-03T16:13:45.910Z,1.00
2023-04-03T16:16:12.795Z,1.00
2023-04-03T16:18:39.951Z,1.00
2023-04-03T16:21:08.983Z,1.00
2023-04-03T16:23:36.107Z,1.00
2023-04-03T16:26:02.908Z,1.00
2023-04-03T16:28:29.640Z,1.00
2023-04-03T16:30:56.441Z,1.00
2023-04-03T16:33:23.244Z,1.00
2023-04-03T16:35:51.564Z,1.00
2023-04-03T16:38:19.859Z,1.00
2023-04-03T16:40:47.222Z,1.00
2023-04-03T16:43:13.954Z,1.00
2023-04-03T16:45:41.066Z,1.00
2023-04-03T16:48:08.291Z,1.00
2023-04-03T16:50:35.184Z,1.00
2023-04-03T16:53:03.934Z,1.00
2023-04-03T16:55:31.033Z,1.00
2023-04-03T16:57:57.823Z,1.00
2023-04-03T17:00:24.572Z,1.00
2023-04-03T17:02:51.358Z,1.00
2023-04-03T17:05:18.373Z,1.00
2023-04-03T17:07:45.319Z,1.00
2023-04-03T17:10:13.351Z,1.00
2023-04-03T17:12:40.117Z,1.00
2023-04-03T17:15:07.427Z,1.00
2023-04-03T17:17:34.820Z,1.00
2023-04-03T17:20:02.065Z,1.00
2023-04-03T17:22:30.021Z,1.00
2023-04-03T17:24:57.719Z,1.00
2023-04-03T17:27:24.521Z,1.00
2023-04-03T17:29:51.398Z,1.00
2023-04-03T17:32:18.247Z,1.00
2023-04-03T17:34:47.265Z,1.00
2023-04-03T17:37:14.162Z,1.00
2023-04-03T17:39:41.307Z,1.00
2023-04-03T17:42:08.082Z,1.00
2023-04-03T17:44:34.888Z,1.00
2023-04-03T17:47:02.981Z,1.00
2023-04-03T17:49:29.738Z,1.00
2023-04-03T17:51:56.542Z,1.00
2023-04-03T17:54:23.277Z,1.00
2023-04-03T17:56:50.325Z,1.00
2023-04-03T17:59:18.319Z,1.00
2023-04-03T18:01:46.984Z,1.00
2023-04-03T18:04:14.415Z,1.00
2023-04-03T18:06:52.654Z,1.00
2023-04-03T18:09:33.898Z,1.00
2023-04-03T18:12:07.126Z,1.00
2023-04-03T18:14:36.028Z,1.00
2023-04-03T18:17:03.754Z,1.00
2023-04-03T18:19:30.733Z,1.00
2023-04-03T18:22:01.220Z,1.00
2023-04-03T18:24:28.477Z,1.00
2023-04-03T18:27:00.342Z,1.00
2023-04-03T18:29:30.507Z,1.00
2023-04-03T18:31:58.442Z,1.00
2023-04-03T18:34:25.321Z,1.00
2023-04-03T18:36:52.535Z,1.00
2023-04-03T18:39:19.603Z,1.00
2023-04-03T18:41:47.507Z,1.00
2023-04-03T18:44:18.938Z,1.00
2023-04-03T18:46:46.266Z,1.00
2023-04-03T18:49:15.014Z,1.00
2023-04-03T18:51:42.040Z,1.00
2023-04-03T18:54:09.972Z,1.00
2023-04-03T18:56:37.937Z,1.00
2023-04-03T18:59:05.529Z,1.00
2023-04-03T19:01:33.826Z,1.00
2023-04-03T19:04:01.161Z,1.00
2023-04-03T19:06:28.172Z,1.00
2023-04-03T19:08:54.993Z,1.00
2023-04-03T19:11:22.995Z,1.00
2023-04-03T19:14:10.594Z,1.00
2023-04-03T19:16:36.670Z,1.00
2023-04-03T19:19:03.714Z,1.00
2023-04-03T19:21:30.869Z,1.00
2023-04-03T19:23:59.337Z,1.00
2023-04-03T19:26:27.083Z,1.00
2023-04-03T19:28:54.035Z,1.00
2023-04-03T19:31:22.248Z,1.00
2023-04-03T19:33:50.257Z,1.00
2023-04-03T19:36:17.822Z,1.00
2023-04-03T19:38:44.883Z,1.00
2023-04-03T19:41:22.966Z,1.00
2023-04-03T19:43:52.590Z,1.00
2023-04-03T19:46:22.538Z,1.00
2023-04-03T19:48:49.233Z,1.00
2023-04-03T19:51:16.646Z,1.00
2023-04-03T19:53:43.440Z,1.00
2023-04-03T19:56:10.728Z,1.00
2023-04-03T19:58:38.802Z,1.00
2023-04-03T20:01:05.837Z,1.00
2023-04-03T20:03:33.365Z,1.00
2023-04-03T20:06:02.159Z,1.00
2023-04-03T20:08:31.359Z,1.00
2023-04-03T20:10:58.165Z,1.00
2023-04-03T20:13:24.873Z,1.00
2023-04-03T20:15:51.713Z,1.00
2023-04-03T20:18:20.711Z,1.00
2023-04-03T20:20:59.556Z,1.00
2023-04-03T20:23:27.304Z,1.00
2023-04-03T20:26:08.717Z,1.00
2023-04-03T20:28:38.156Z,1.00
2023-04-03T20:31:06.763Z,1.00
2023-04-03T20:33:33.883Z,1.00
2023-04-03T20:36:01.618Z,1.00
2023-04-03T20:38:28.633Z,1.00
2023-04-03T20:40:55.554Z,1.00
2023-04-03T20:43:23.353Z,1.00
2023-04-03T20:45:51.010Z,1.00
2023-04-03T20:48:18.497Z,1.00
2023-04-03T20:50:46.460Z,1.00
2023-04-03T20:53:14.962Z,1.00
2023-04-03T20:55:42.262Z,1.00
2023-04-03T20:58:09.170Z,1.00
2023-04-03T21:00:37.926Z,1.00
2023-04-03T21:03:05.704Z,1.00
2023-04-03T21:05:35.088Z,1.00
2023-04-03T21:08:40.241Z,1.00
2023-04-03T21:11:44.681Z,1.00
2023-04-03T21:14:49.217Z,1.00
2023-04-03T21:17:16.534Z,1.00
2023-04-03T21:19:46.530Z,1.00
2023-04-03T21:22:16.090Z,1.00
2023-04-03T21:24:44.194Z,1.00
2023-04-03T21:27:11.827Z,1.00
2023-04-03T21:29:38.901Z,1.00
2023-04-03T21:32:06.334Z,1.00
2023-04-03T21:34:33.260Z,1.00
2023-04-03T21:37:05.611Z,1.00
2023-04-03T21:39:33.156Z,1.00
2023-04-03T21:42:00.228Z,1.00
2023-04-03T21:44:28.444Z,1.00
2023-04-03T21:46:55.605Z,1.00
2023-04-03T21:49:23.506Z,1.00
2023-04-03T21:51:53.287Z,1.00
2023-04-03T21:54:20.736Z,1.00
2023-04-03T21:56:48.380Z,1.00
2023-04-03T21:59:15.943Z,1.00
2023-04-03T22:01:43.107Z,1.00
2023-04-03T22:04:09.917Z,1.00
2023-04-03T22:06:37.967Z,1.00
2023-04-03T22:09:05.142Z,1.00
2023-04-03T22:11:32.319Z,1.00
2023-04-03T22:13:59.848Z,1.00
2023-04-03T22:16:27.528Z,1.00
2023-04-03T22:18:55.057Z,1.00
2023-04-03T22:21:22.385Z,1.00
2023-04-03T22:23:49.336Z,1.00
2023-04-03T22:26:16.522Z,1.00
2023-04-03T22:28:45.847Z,1.00
2023-04-03T22:31:14.393Z,1.00
2023-04-03T22:33:42.892Z,1.00
2023-04-03T22:36:11.164Z,1.00
2023-04-03T22:38:38.913Z,1.00
2023-04-03T22:41:08.006Z,1.00
2023-04-03T22:43:36.973Z,1.00
2023-04-03T22:46:05.582Z,1.00
2023-04-03T22:48:33.437Z,1.00
2023-04-03T22:51:01.085Z,1.00
2023-04-03T22:53:28.560Z,1.00
2023-04-03T22:55:59.473Z,1.00
2023-04-03T22:58:27.675Z,1.00
2023-04-03T23:01:08.391Z,1.00
2023-04-03T23:03:36.367Z,1.00
2023-04-03T23:06:06.527Z,1.00
2023-04-03T23:08:35.181Z,1.00
2023-04-03T23:11:02.462Z,1.00
2023-04-03T23:13:29.532Z,1.00
2023-04-03T23:15:57.773Z,1.00
2023-04-03T23:18:25.520Z,1.00
2023-04-03T23:20:54.384Z,1.00
2023-04-03T23:23:22.507Z,1.00
2023-04-03T23:25:57.312Z,1.00
2023-04-03T23:28:24.691Z,1.00
2023-04-03T23:30:59.453Z,1.00
2023-04-03T23:33:26.386Z,1.00
2023-04-03T23:35:53.285Z,1.00
2023-04-03T23:38:20.087Z,1.00
2023-04-03T23:40:47.304Z,1.00
2023-04-03T23:43:14.058Z,1.00
2023-04-03T23:45:41.395Z,1.00
2023-04-03T23:48:08.963Z,1.00
2023-04-03T23:50:35.698Z,1.00
2023-04-03T23:53:02.534Z,1.00
2023-04-03T23:55:29.310Z,1.00
2023-04-03T23:57:56.361Z,1.00
